NZAA/AKL METAR and TAF weather

Enter ICAO airport designator
Station Type Date Time Source
NZAA METAR 2018/07/19 07:30 UTC NOAA

NZAA 190730Z AUTO 33005KT 9999 FEW049/// SCT060/// BKN100/// 13/11 Q1017 NOSIG


Station Type Date Time Source
NZAA Decoded METAR 2018/07/19 07:30 UTC NOAA

Auckland Airport, New Zealand (NZAA) 37-01S 174-48E 6M
Jul 19, 2018 - 03:30 AM EDT / 2018.07.19 0730 UTC
Wind: from the NNW (330 degrees) at 6 MPH (5 KT):0
Visibility: greater than 7 mile(s):0
Sky conditions: mostly cloudy
Temperature: 55 F (13 C)
Dew Point: 51 F (11 C)
Relative Humidity: 87%
Pressure (altimeter): 30.03 in. Hg (1017 hPa)
ob: NZAA 190730Z AUTO 33005KT 9999 FEW049/// SCT060/// BKN100/// 13/11 Q1017 NOSIG
cycle: 7

Station Type Date Time Source
NZAA TAF 2018/07/19 06:22 UTC NOAA

TAF NZAA 190511Z 1906/2006 28008KT 9999 -SHRA SCT020 BKN050
TEMPO 1906/1909 6000 SHRA SCT020TCU PROB30
TEMPO 1906/1908 3000 +SHRA BKN014 FEW020CB PROB30
TEMPO 1915/1922 1000 BR


Example: see airport list